Página principal
METAR-TAF:

METAR-TAF

Aeroportos :

Aeroporto Internacional Philip S. W. Goldson

Belize, Belize

latitude: 17-32N, longitude: 088-18W, altura: 5 m

Observação actual do tempo

O boletim foi feito há 32 minutos, às 11:00 UTC
Vento 5 kt de es-sudeste
Temperatura 25°C
Humidade 89%
Pressão 1013 hPa
Visibilidade 10 km ou mais
Poucas nuvensa uma altura de 2000 ft

METAR: MZBZ 231100Z 11005KT 9999 FEW020 25/23 A2992 Q1013 NOSIG

Hora: 05:32 (11:32 UTC)

Previsão

O boletim foi feito há 8 horas e 32 minutos, às 03:00 UTC
Previsão válida de 23 às 06 UTC a 24 às 06 UTC
Vento 10 kt de es-sudeste
Visibilidade 10 km ou mais
Nuvens dispersasa uma altura de 2200 ft

TAF: MZBZ 230300Z 2306/2406 11010KT 9999 SCT022

Observações e previsões do tempo de mais de 4000 aeroportos (mensagens METAR e TAF).

As estações disponíveis são os pontos amarelos e vermelhos sobre o mapa.

Mova o rato sobre o mapa para ver o nome da estação.

Depois clique no ponto para visualizar as observações e previsões meteorológicas.

Para alterar o mapa : clique nos botões verdes com uma cruz preta para aumentar o zoom; no botão verde com uma pitada de zoom; ou nas setas verdes para mapas adjacentes.


METAR-TAF: